CheckWX is a tool to help pilots better visualize weather data.  It is not intended as a substitute for an official pre-flight weather briefing.

04:23:22 UTC

KTWF TAF
Joslin Field - Magic Valley Regional Airport
Twin Falls, Idaho, USA
KTWF 172327Z 1800/1824 27015KT P6SM VCSH FEW025 BKN040 FM180200 20008KT P6SM SKC FM181600 09007KT P6SM SKC

Feb-18@
00:00 UTC

Feb-18 @ 00:00 UTC

Feb-18@
02:00 UTC

Feb-18 @ 02:00 UTC

KTWF 172327Z 1800/1824 27015KT P6SM VCSH FEW025 BKN040

Expired

Wind
  • 270° at 15 KTS
Cloud Levels
  • Few at 2,500' AGL
  • Broken at 4,000' AGL

Feb-18@
02:00 UTC

Feb-18 @ 02:00 UTC

Feb-18@
16:00 UTC

Feb-18 @ 16:00 UTC

FM180200 20008KT P6SM SKC

From

From Standard forecast or significant change

Wind
  • 200° at 8 KTS
Cloud Levels
  • Clear skies

Feb-18@
16:00 UTC

Feb-18 @ 16:00 UTC

Feb-19@
00:00 UTC

Feb-19 @ 00:00 UTC

FM181600 09007KT P6SM SKC

From

From Standard forecast or significant change

Wind
  • 090° at 7 KTS
Cloud Levels
  • Clear skies